To NAV CANADA Home Page Login to a new session Search on AWWS site Disclaimer Vers la page française équivalente Tips FAQ What's new on the site To the Forecasts and Observations / NOTAM section To "File a Flight Plan" website Publications and other links Update of the User's profile FIC Telephone Numbers My Weather Data Folder Route Weather Data Regional Weather Data Local Weather Data To the Forecasts and Observations / NOTAM section
Request Generated 11/13/2018 at 18:37:23 UTC . Weather information available at that time is displayed.

METAR/TAF

PINCHER CREEK/AB    (show WxCam)

METAR CZPC 131800Z AUTO 31013G26KT 250V330 9SM OVC200 05/M11 A3024 RMK SLP278=
METAR CZPC 131700Z AUTO 28019KT 9SM OVC200 03/M08 A3023 RMK SLP275=
METAR CZPC 131600Z AUTO 28018G25KT 9SM BKN210 03/M09 A3023 RMK SLP277=

CZPC - No TAF is issued for this station

Your time UTC time
Weather data provided by Environment Canada and NAV CANADA